Bentonville (XNA/KXNA)

Map

Destinations

Information

Location
Bentonville, AR
Local Time
12:37 / 12:37 pm
GMT Time
18:37 / 6:37 pm
Gates
Unassigned
No FAA reported delays
METAR KXNA 191753Z 21010KT 10SM CLR 22/14 A3000 RMK AO2 SLP153 T02220139 10222 20067 51001
TAF KXNA 191727Z 1918/2018 15012KT P6SM SCT250 FM200300 16006KT P6SM VCSH OVC015 FM200900 17009KT 4SM BR VCTS OVC015CB TEMPO 2010/2014 2SM -TSRA OVC007CB FM201400 18008KT 4SM -RA BR OVC007
  • No charts available